Thunder radar more information blitzortung!


Radar de pluja more information rain snow radar


Visita la nostra xarxa de llocs de meteo:

Template documentation
and downloads

And another site



No particular awareness of the weather is required.    There are no Weather-warnings

Pagina Historial Weather Underground text

Diari Resum Juliol 2, 2017 Unitats:  Mètric    Imperial   Tant
« Previous Dia
SegĂźent Dia »
Diari Setmana Mensual Anual Personalitzada
  Maxima: Minima: Media:
Temperatura: -17.8 °C -8.4 °C -3.8 °C
Punt de rosada: -17.8 °C -14.5 °C -12.8 °C
Humitat: Humidity % 25 % 38 %
Wind Speed: 0 km/h 0 km/h 10.8 km/h
RĂ fegues de vent: 0 km/h - -
Vent:- - SSE
Pression baro: 0 hPa 34462.7 hPa -
Precipitacions: 0 mm    
Historical Graphs
 
 
Dades de taula per Juliol 2, 2017
Temps Temperatura Punt de rosada Pression baro Vent Wind Speed RĂ fegues de vent Humitat Rainfall Rate (Hourly)
-17.8 °C -17.8 °C 0 hPa Calm     Humidity % 0 mm
00:03 -7.2 °C -13.3 °C 34533.8 hPa Calm     49 % 0 mm
00:08 -7.3 °C -13.2 °C 34533.8 hPa WNW 3.7 km/h   50 % 0 mm
00:13 -7.3 °C -13.2 °C 34567.7 hPa Calm     50 % 0 mm
05:25 -6.4 °C -12.7 °C 34601.5 hPa NE 7.7 km/h 10.3 km/h 48 % 0 mm
05:35 -5.8 °C -12.3 °C 34601.5 hPa NE 5.1 km/h 10.3 km/h 47 % 0 mm
10:42 -5.7 °C -12.3 °C 34601.5 hPa NNE 9 km/h 9 km/h 47 % 0 mm
10:47 -5.8 °C -12.3 °C 34567.7 hPa East 11.9 km/h 11.9 km/h 47 % 0 mm
10:52 -5.7 °C -12.4 °C 34567.7 hPa NE 15 km/h 15 km/h 46 % 0 mm
10:57 -5.6 °C -12.3 °C 34567.7 hPa NW 15 km/h 15 km/h 46 % 0 mm
11:02 -5.6 °C -12.5 °C 34567.7 hPa NW 11.9 km/h 11.9 km/h 45 % 0 mm
11:07 -5.5 °C -12.4 °C 34567.7 hPa ESE 9.8 km/h 9.8 km/h 45 % 0 mm
11:13 -5.3 °C -12.3 °C 34567.7 hPa North 9.8 km/h 9.8 km/h 45 % 0 mm
11:17 -5.1 °C -12.1 °C 34567.7 hPa WNW 6 km/h 6 km/h 45 % 0 mm
11:22 -5 °C -12.2 °C 34567.7 hPa NE 14.5 km/h 14.5 km/h 44 % 0 mm
11:27 -5 °C -12.2 °C 34567.7 hPa NNE 15.3 km/h 15.3 km/h 44 % 0 mm
11:32 -5 °C -12.2 °C 34567.7 hPa NNE 15 km/h 15 km/h 44 % 0 mm
11:33 -5 °C -12.2 °C 34567.7 hPa NE 15.3 km/h 15.3 km/h 44 % 0 mm
11:38 -5 °C -12.4 °C 34567.7 hPa NNE 15 km/h 15 km/h 43 % 0 mm
11:43 -4.8 °C -12.2 °C 34567.7 hPa NNE 17.9 km/h 17.9 km/h 43 % 0 mm
11:48 -4.7 °C -12.3 °C 34567.7 hPa ESE 11.9 km/h 11.9 km/h 42 % 0 mm
11:53 -4.5 °C -11.9 °C 34567.7 hPa ENE 11.9 km/h 11.9 km/h 43 % 0 mm
11:58 -4.4 °C -12.1 °C 34567.7 hPa WSW 6.8 km/h 6.8 km/h 42 % 0 mm
12:03 -4.2 °C -11.8 °C 34567.7 hPa NE 15 km/h 15 km/h 42 % 0 mm
12:08 -4.2 °C -11.8 °C 34567.7 hPa NE 8 km/h 8 km/h 42 % 0 mm
12:13 -4.2 °C -12.1 °C 34533.8 hPa NE 17.9 km/h 17.9 km/h 41 % 0 mm
12:18 -4.1 °C -12 °C 34533.8 hPa East 16.6 km/h 16.6 km/h 41 % 0 mm
12:23 -4.3 °C -12.4 °C 34533.8 hPa East 15 km/h 15 km/h 40 % 0 mm
12:28 -3.8 °C -11.9 °C 34533.8 hPa NW 11.9 km/h 11.9 km/h 40 % 0 mm
12:33 -3.2 °C -11.6 °C 34533.8 hPa ESE 8.5 km/h 8.5 km/h 39 % 0 mm
12:38 -2.9 °C -11.3 °C 34533.8 hPa SSW 6 km/h 6 km/h 39 % 0 mm
12:43 -2.6 °C -11.2 °C 34567.7 hPa South 9.8 km/h 9.8 km/h 38 % 0 mm
12:48 -2.6 °C -11.5 °C 34567.7 hPa SW 8.5 km/h 8.5 km/h 37 % 0 mm
12:53 -2.4 °C -11.3 °C 34567.7 hPa NNW 15 km/h 15 km/h 37 % 0 mm
12:58 -2.6 °C -11.7 °C 34533.8 hPa SW 11.9 km/h 11.9 km/h 36 % 0 mm
13:03 -2.5 °C -11.8 °C 34533.8 hPa SW 15 km/h 15 km/h 35 % 0 mm
13:08 -2.5 °C -11.8 °C 34533.8 hPa WNW 11.1 km/h 11.1 km/h 35 % 0 mm
13:13 -2.5 °C -12.1 °C 34533.8 hPa SW 8.5 km/h 8.5 km/h 34 % 0 mm
13:18 -2.4 °C -12.3 °C 34533.8 hPa West 17.9 km/h 17.9 km/h 33 % 0 mm
13:23 -2.4 °C -12.5 °C 34533.8 hPa SSW 15 km/h 15 km/h 32 % 0 mm
13:28 -2.2 °C -12.6 °C 34533.8 hPa SSW 11.9 km/h 11.9 km/h 31 % 0 mm
13:33 -2.2 °C -12.6 °C 34533.8 hPa ENE 11.9 km/h 11.9 km/h 31 % 0 mm
13:38 -2.2 °C -12.8 °C 34533.8 hPa West 15 km/h 15 km/h 30 % 0 mm
13:43 -1.9 °C -12.6 °C 34533.8 hPa West 14 km/h 14 km/h 30 % 0 mm
13:48 -1.9 °C -12.6 °C 34533.8 hPa WSW 11.9 km/h 11.9 km/h 30 % 0 mm
13:53 -2.1 °C -13 °C 34533.8 hPa ESE 11.9 km/h 11.9 km/h 29 % 0 mm
13:58 -1.9 °C -12.7 °C 34533.8 hPa NE 10.3 km/h 10.3 km/h 30 % 0 mm
14:03 -1.7 °C -12.7 °C 34533.8 hPa West 9 km/h 9 km/h 29 % 0 mm
14:08 -1.9 °C -12.9 °C 34533.8 hPa West 11.9 km/h 11.9 km/h 29 % 0 mm
14:13 -1.6 °C -12.9 °C 34533.8 hPa WSW 15 km/h 15 km/h 28 % 0 mm
14:18 -1.6 °C -12.9 °C 34533.8 hPa SW 11.9 km/h 11.9 km/h 28 % 0 mm
14:23 -1.4 °C -12.7 °C 34533.8 hPa SSW 9 km/h 9 km/h 28 % 0 mm
14:28 -1.2 °C -12.9 °C 34496.6 hPa West 9 km/h 9 km/h 27 % 0 mm
14:33 -1.5 °C -13.1 °C 34496.6 hPa South 6 km/h 6 km/h 27 % 0 mm
14:38 -1.4 °C -13.1 °C 34496.6 hPa ENE 11.9 km/h 11.9 km/h 27 % 0 mm
14:43 -1.3 °C -13 °C 34533.8 hPa SW 14.5 km/h 14.5 km/h 27 % 0 mm
14:48 -1.2 °C -12.8 °C 34533.8 hPa SSW 15 km/h 15 km/h 27 % 0 mm
14:53 -1.8 °C -13.1 °C 34533.8 hPa WSW 8.5 km/h 8.5 km/h 28 % 0 mm
14:58 -1.6 °C -13.2 °C 34533.8 hPa South 9 km/h 9 km/h 27 % 0 mm
15:01 -1.2 °C -12.9 °C 34533.8 hPa WSW 9.8 km/h 9.8 km/h 27 % 0 mm
15:06 -1.6 °C -13.2 °C 34533.8 hPa SW 11.9 km/h 11.9 km/h 27 % 0 mm
15:11 -1.3 °C -13 °C 34533.8 hPa WSW 9 km/h 9 km/h 27 % 0 mm
15:16 -0.9 °C -12.6 °C 34533.8 hPa WNW 15 km/h 15 km/h 27 % 0 mm
15:21 -0.7 °C -12.8 °C 34533.8 hPa SW 10.3 km/h 10.3 km/h 26 % 0 mm
15:26 -1.1 °C -13.1 °C 34496.6 hPa ENE 15 km/h 15 km/h 26 % 0 mm
15:31 -0.8 °C -12.9 °C 34496.6 hPa SSE 11.9 km/h 11.9 km/h 26 % 0 mm
15:36 -1.2 °C -13.2 °C 34496.6 hPa South 9 km/h 9 km/h 26 % 0 mm
15:41 -0.9 °C -12.6 °C 34496.6 hPa West 17.9 km/h 17.9 km/h 27 % 0 mm
15:46 -0.7 °C -12.8 °C 34496.6 hPa SW 9 km/h 9 km/h 26 % 0 mm
15:51 -0.7 °C -12.8 °C 34496.6 hPa North 6 km/h 6 km/h 26 % 0 mm
15:56 -0.6 °C -12.9 °C 34496.6 hPa North 11.9 km/h 11.9 km/h 25 % 0 mm
16:01 -0.4 °C -12.6 °C 34496.6 hPa WSW 15 km/h 15 km/h 26 % 0 mm
16:06 -0.4 °C -12.5 °C 34496.6 hPa West 11.9 km/h 11.9 km/h 26 % 0 mm
16:11 -0.5 °C -12.9 °C 34496.6 hPa WSW 15 km/h 15 km/h 25 % 0 mm
16:16 -0.3 °C -12.4 °C 34496.6 hPa West 23.8 km/h 23.8 km/h 26 % 0 mm
16:21 -0.3 °C -12.4 °C 34496.6 hPa West 12.7 km/h 12.7 km/h 26 % 0 mm
16:26 -0.2 °C -12.3 °C 34496.6 hPa SW 15 km/h 15 km/h 26 % 0 mm
16:31 -0.8 °C -12.8 °C 34496.6 hPa SW 9.8 km/h 9.8 km/h 26 % 0 mm
16:36 -0.6 °C -12.7 °C 34496.6 hPa SW 9 km/h 9 km/h 26 % 0 mm
16:41 -0.8 °C -12.9 °C 34462.7 hPa SW 20.9 km/h 20.9 km/h 26 % 0 mm
16:42 -0.8 °C -12.9 °C 34462.7 hPa SSW 27.2 km/h 27.2 km/h 26 % 0 mm
16:47 -0.8 °C -12.9 °C 34462.7 hPa SSW 11.9 km/h 11.9 km/h 26 % 0 mm
16:52 -0.8 °C -12.9 °C 34462.7 hPa SW 11.9 km/h 11.9 km/h 26 % 0 mm
16:57 -0.6 °C -12.7 °C 34462.7 hPa West 23.8 km/h 23.8 km/h 26 % 0 mm
17:02 -0.6 °C -12.7 °C 34462.7 hPa South 17.9 km/h 17.9 km/h 26 % 0 mm
17:07 -0.4 °C -12.5 °C 34462.7 hPa South 15 km/h 15 km/h 26 % 0 mm
17:12 -0.6 °C -12.7 °C 34462.7 hPa South 20.9 km/h 20.9 km/h 26 % 0 mm
17:17 -0.9 °C -12.9 °C 34462.7 hPa SW 26.9 km/h 26.9 km/h 26 % 0 mm
17:22 -0.7 °C -12.8 °C 34462.7 hPa SW 15 km/h 15 km/h 26 % 0 mm
17:27 -1.1 °C -13.1 °C 34462.7 hPa SW 23.8 km/h 23.8 km/h 26 % 0 mm
17:32 -0.9 °C -12.9 °C 34462.7 hPa SW 20.9 km/h 20.9 km/h 26 % 0 mm
17:37 -1.1 °C -13.1 °C 34462.7 hPa SW 20.9 km/h 20.9 km/h 26 % 0 mm
17:42 -1.1 °C -13.1 °C 34462.7 hPa SSW 20.9 km/h 20.9 km/h 26 % 0 mm
17:47 -1.1 °C -13.1 °C 34462.7 hPa WSW 35.7 km/h 35.7 km/h 26 % 0 mm
17:48 -1.2 °C -13.2 °C 34462.7 hPa SW 23.8 km/h 23.8 km/h 26 % 0 mm
17:53 -1.3 °C -13.3 °C 34462.7 hPa South 32.8 km/h 32.8 km/h 26 % 0 mm
17:58 -1.5 °C -13.4 °C 34462.7 hPa SSW 32.8 km/h 32.8 km/h 26 % 0 mm
18:03 -1.6 °C -13.5 °C 34462.7 hPa SW 23.8 km/h 23.8 km/h 26 % 0 mm
18:08 -1.5 °C -13.4 °C 34462.7 hPa SW 23.8 km/h 23.8 km/h 26 % 0 mm
18:13 -1.5 °C -13.4 °C 34462.7 hPa SSW 15 km/h 15 km/h 26 % 0 mm
18:18 -1.6 °C -13.2 °C 34462.7 hPa SSW 15 km/h 15 km/h 27 % 0 mm
18:23 -1.6 °C -13.2 °C 34462.7 hPa SW 26.9 km/h 26.9 km/h 27 % 0 mm
18:28 -1.9 °C -13.4 °C 34462.7 hPa SSW 32.8 km/h 32.8 km/h 27 % 0 mm
18:33 -2 °C -13.3 °C 34462.7 hPa SW 23.8 km/h 23.8 km/h 28 % 0 mm
18:38 -2.1 °C -13.4 °C 34462.7 hPa SSE 23.8 km/h 23.8 km/h 28 % 0 mm
18:43 -2.2 °C -13.4 °C 34462.7 hPa SSW 26.9 km/h 26.9 km/h 28 % 0 mm
18:48 -2.2 °C -13.4 °C 34462.7 hPa South 15 km/h 15 km/h 28 % 0 mm
18:53 -2.2 °C -13.4 °C 34462.7 hPa SW 15 km/h 16.6 km/h 28 % 0 mm
18:58 -2.2 °C -13.4 °C 34496.6 hPa SSW 14 km/h 14 km/h 28 % 0 mm
19:03 -2.4 °C -13.6 °C 34496.6 hPa SSW 15 km/h 15 km/h 28 % 0 mm
19:08 -2.4 °C -13.6 °C 34496.6 hPa West 6 km/h 6 km/h 28 % 0 mm
19:10 -6.4 °C -11.6 °C 34601.5 hPa NE 5.1 km/h 5.1 km/h 55 % 0 mm
19:13 -2.6 °C -13.7 °C 34496.6 hPa SSW 11.9 km/h 11.9 km/h 28 % 0 mm
19:18 -2.3 °C -13.6 °C 34496.6 hPa SW 11.9 km/h 11.9 km/h 28 % 0 mm
19:20 -6.4 °C -11.6 °C 34567.7 hPa NE 2.6 km/h 7.7 km/h 55 % 0 mm
19:23 -2.4 °C -13.7 °C 34496.6 hPa South 9 km/h 9 km/h 28 % 0 mm
19:28 -2.5 °C -13.7 °C 34496.6 hPa SSW 18.3 km/h 18.3 km/h 28 % 0 mm
19:30 -6.5 °C -11.6 °C 34601.5 hPa NE 2.6 km/h 5.1 km/h 56 % 0 mm
19:33 -2.7 °C -13.8 °C 34496.6 hPa SW 9 km/h 9 km/h 28 % 0 mm
19:38 -2.6 °C -13.8 °C 34496.6 hPa SW 10.3 km/h 10.3 km/h 28 % 0 mm
19:40 -6.5 °C -11.6 °C 34601.5 hPa NE 2.6 km/h 5.1 km/h 56 % 0 mm
19:43 -2.7 °C -13.8 °C 34496.6 hPa SSE 11.9 km/h 11.9 km/h 28 % 0 mm
19:48 -2.8 °C -13.9 °C 34496.6 hPa SW 15 km/h 15 km/h 28 % 0 mm
19:50 -6.6 °C -11.6 °C 34567.7 hPa NE 2.6 km/h 7.7 km/h 56 % 0 mm
19:53 -2.9 °C -14 °C 34496.6 hPa West 11.9 km/h 11.9 km/h 28 % 0 mm
19:58 -2.9 °C -14 °C 34496.6 hPa West 6.3 km/h 6.3 km/h 28 % 0 mm
20:00 -6.7 °C -11.6 °C 34567.7 hPa NNE 2.6 km/h 5.1 km/h 57 % 0 mm
20:03 -3 °C -14.1 °C 34496.6 hPa SSW 15 km/h 15 km/h 28 % 0 mm
20:08 -3.1 °C -13.9 °C 34496.6 hPa SW 15 km/h 15 km/h 29 % 0 mm
20:10 -6.7 °C -11.4 °C 34567.7 hPa NE 2.6 km/h 7.7 km/h 58 % 0 mm
20:13 -3.1 °C -13.9 °C 34496.6 hPa SSW 11.9 km/h 11.9 km/h 29 % 0 mm
20:18 -3.2 °C -14 °C 34496.6 hPa SSW 20.9 km/h 20.9 km/h 29 % 0 mm
20:20 -6.8 °C -11.3 °C 34601.5 hPa Calm   5.1 km/h 59 % 0 mm
20:23 -3.3 °C -14.1 °C 34496.6 hPa SW 7.6 km/h 7.6 km/h 29 % 0 mm
20:28 -3.4 °C -14.2 °C 34496.6 hPa WSW 9.3 km/h 9.3 km/h 29 % 0 mm
20:30 -6.8 °C -11.3 °C 34601.5 hPa ENE 5.1 km/h 5.1 km/h 59 % 0 mm
20:33 -3.5 °C -14.3 °C 34496.6 hPa South 15 km/h 15 km/h 29 % 0 mm
20:38 -3.7 °C -14.4 °C 34496.6 hPa SSW 11.9 km/h 11.9 km/h 29 % 0 mm
20:40 -6.8 °C -11.4 °C 34601.5 hPa ENE 2.6 km/h 5.1 km/h 59 % 0 mm
20:43 -3.7 °C -14.4 °C 34496.6 hPa SW 6.8 km/h 6.8 km/h 29 % 0 mm
20:48 -3.8 °C -14.5 °C 34496.6 hPa SW 11.9 km/h 11.9 km/h 29 % 0 mm
20:50 -6.9 °C -11.4 °C 34567.7 hPa NE 2.6 km/h 5.1 km/h 59 % 0 mm
20:53 -3.9 °C -14.3 °C 34496.6 hPa WSW 9 km/h 9 km/h 30 % 0 mm
20:58 -4 °C -14.2 °C 34533.8 hPa SW 9.8 km/h 9.8 km/h 31 % 0 mm
21:00 -6.9 °C -11.5 °C 34567.7 hPa NE 2.6 km/h 5.1 km/h 59 % 0 mm
21:03 -4.1 °C -14.3 °C 34533.8 hPa WSW 11.9 km/h 11.9 km/h 31 % 0 mm
21:08 -4.2 °C -14.3 °C 34533.8 hPa SW 11.9 km/h 11.9 km/h 31 % 0 mm
21:10 -7 °C -11.4 °C 34567.7 hPa NE 2.6 km/h 5.1 km/h 60 % 0 mm
21:13 -4.3 °C -14.2 °C 34533.8 hPa SW 11.9 km/h 11.9 km/h 32 % 0 mm
21:18 -4.4 °C -14.2 °C 34533.8 hPa WSW 9 km/h 9 km/h 32 % 0 mm
21:20 -7.1 °C -11.3 °C 34567.7 hPa NE 2.6 km/h 2.6 km/h 61 % 0 mm
21:23 -4.5 °C -14.3 °C 34533.8 hPa SSW 6.8 km/h 6.8 km/h 32 % 0 mm
21:28 -4.6 °C -14.1 °C 34533.8 hPa West 11.9 km/h 11.9 km/h 33 % 0 mm
21:30 -7.2 °C -11.6 °C 34567.7 hPa Calm     60 % 0 mm
21:33 -4.7 °C -14.2 °C 34533.8 hPa West 9 km/h 9 km/h 33 % 0 mm
21:38 -4.8 °C -14.3 °C 34533.8 hPa SW 6.3 km/h 6.3 km/h 33 % 0 mm
21:40 -7.4 °C -11.5 °C 34567.7 hPa Calm   5.1 km/h 62 % 0 mm
21:43 -4.9 °C -14.2 °C 34533.8 hPa SW 6 km/h 6 km/h 34 % 0 mm
21:48 -4.9 °C -14.2 °C 34533.8 hPa WSW 6 km/h 6 km/h 34 % 0 mm
21:50 -7.4 °C -11.4 °C 34567.7 hPa Calm     63 % 0 mm
21:53 -5.1 °C -13.8 °C 34533.8 hPa SW 4.2 km/h   36 % 0 mm
21:58 -5.2 °C -13.7 °C 34533.8 hPa SW 6 km/h 6 km/h 37 % 0 mm
22:00 -7.6 °C -11.6 °C 34567.7 hPa Calm     63 % 0 mm
22:03 -5.2 °C -13.8 °C 34533.8 hPa Calm     37 % 0 mm
22:08 -5.3 °C -13.7 °C 34533.8 hPa SSE 3.1 km/h 3.1 km/h 38 % 0 mm
22:10 -7.7 °C -11.7 °C 34567.7 hPa Calm   5.1 km/h 63 % 0 mm
22:13 -5.4 °C -13.7 °C 34533.8 hPa Calm     38 % 0 mm
22:18 -5.4 °C -13.7 °C 34533.8 hPa WNW 3.1 km/h   38 % 0 mm
22:20 -7.8 °C -11.7 °C 34567.7 hPa Calm     64 % 0 mm
22:23 -5.4 °C -13.5 °C 34533.8 hPa NE 11.9 km/h 11.9 km/h 39 % 0 mm
22:28 -5.4 °C -13.1 °C 34567.7 hPa NNE 9 km/h 9 km/h 41 % 0 mm
22:30 -7.8 °C -11.7 °C 34567.7 hPa Calm     64 % 0 mm
22:33 -5.5 °C -13 °C 34567.7 hPa North 6 km/h 6 km/h 42 % 0 mm
22:38 -5.6 °C -12.7 °C 34567.7 hPa East 9 km/h 9 km/h 44 % 0 mm
22:40 -7.9 °C -11.7 °C 34567.7 hPa Calm     64 % 0 mm
22:43 -5.7 °C -12.4 °C 34567.7 hPa ENE 6 km/h 6 km/h 46 % 0 mm
22:48 -5.7 °C -12.3 °C 34567.7 hPa NE 6.3 km/h 6.3 km/h 47 % 0 mm
22:53 -5.8 °C -12.2 °C 34567.7 hPa ENE 9 km/h 9 km/h 48 % 0 mm
22:58 -5.9 °C -12.3 °C 34567.7 hPa East 6 km/h 6 km/h 48 % 0 mm
23:00 -8 °C -11.8 °C 34533.8 hPa NE 5.1 km/h 5.1 km/h 64 % 0 mm
23:03 -5.9 °C -12.1 °C 34567.7 hPa East 6 km/h 6 km/h 49 % 0 mm
23:08 -5.9 °C -12 °C 34567.7 hPa ENE 6 km/h 6 km/h 50 % 0 mm
23:10 -8.1 °C -11.8 °C 34533.8 hPa Calm   5.1 km/h 65 % 0 mm
23:13 -6 °C -12.1 °C 34567.7 hPa ENE 5.1 km/h 5.1 km/h 50 % 0 mm
23:18 -6.1 °C -11.9 °C 34567.7 hPa East 9 km/h 9 km/h 51 % 0 mm
23:20 -8.1 °C -11.8 °C 34567.7 hPa Calm   5.1 km/h 65 % 0 mm
23:23 -6.1 °C -11.9 °C 34567.7 hPa ENE 6 km/h 6 km/h 51 % 0 mm
23:28 -6.2 °C -11.8 °C 34567.7 hPa NNE 6 km/h 6 km/h 52 % 0 mm
23:30 -8.2 °C -11.9 °C 34533.8 hPa Calm   2.6 km/h 65 % 0 mm
23:33 -6.2 °C -11.7 °C 34567.7 hPa ENE 8.5 km/h 8.5 km/h 53 % 0 mm
23:38 -6.2 °C -11.7 °C 34567.7 hPa NE 6 km/h 6 km/h 53 % 0 mm
23:40 -8.3 °C -11.9 °C 34533.8 hPa Calm     66 % 0 mm
23:43 -6.3 °C -11.8 °C 34567.7 hPa NE 6 km/h 6 km/h 53 % 0 mm
23:48 -6.3 °C -11.8 °C 34567.7 hPa ENE 5.1 km/h 5.1 km/h 53 % 0 mm
23:50 -8.4 °C -11.7 °C 34567.7 hPa Calm   2.6 km/h 68 % 0 mm
23:53 -6.3 °C -11.7 °C 34567.7 hPa NNE 6 km/h 6 km/h 54 % 0 mm
23:58 -6.3 °C -11.7 °C 34601.5 hPa NE 6 km/h 6 km/h 54 % 0 mm
Meteo Sesrovires
Elogis d' Weather Underground - 2 mb

Guio original per  Jim McMurry - jmcmurry@mwt.net Adaptat per a la plantilla per  Wim van der Kuil - Leuven-Template.eu

Trobareu la nostra informacio del temps tambe a:

Weather Underground

AWEKAS